sensor_id;sensor_type;location;lat;lon;timestamp;P1;durP1;ratioP1;P2;durP2;ratioP2
14799;SDS011;7491;57.750;11.970;2023-11-18T00:01:20;6.10;;;4.50;;
14799;SDS011;7491;57.750;11.970;2023-11-18T00:03:47;7.45;;;5.40;;
14799;SDS011;7491;57.750;11.970;2023-11-18T00:06:13;5.90;;;4.60;;
14799;SDS011;7491;57.750;11.970;2023-11-18T00:08:40;6.45;;;4.93;;
14799;SDS011;7491;57.750;11.970;2023-11-18T00:11:07;7.65;;;5.03;;
14799;SDS011;7491;57.750;11.970;2023-11-18T00:13:37;6.55;;;5.03;;
14799;SDS011;7491;57.750;11.970;2023-11-18T00:16:04;6.50;;;5.13;;
14799;SDS011;7491;57.750;11.970;2023-11-18T00:18:31;7.00;;;4.38;;
14799;SDS011;7491;57.750;11.970;2023-11-18T00:20:58;7.82;;;4.28;;
14799;SDS011;7491;57.750;11.970;2023-11-18T00:23:25;7.78;;;5.22;;
14799;SDS011;7491;57.750;11.970;2023-11-18T00:25:54;5.03;;;4.05;;
14799;SDS011;7491;57.750;11.970;2023-11-18T00:28:21;4.28;;;3.83;;
14799;SDS011;7491;57.750;11.970;2023-11-18T00:30:49;5.68;;;3.90;;
14799;SDS011;7491;57.750;11.970;2023-11-18T00:33:16;3.55;;;3.25;;
14799;SDS011;7491;57.750;11.970;2023-11-18T00:35:42;5.60;;;5.00;;
14799;SDS011;7491;57.750;11.970;2023-11-18T00:38:10;4.82;;;3.70;;
14799;SDS011;7491;57.750;11.970;2023-11-18T00:40:37;4.20;;;3.60;;
14799;SDS011;7491;57.750;11.970;2023-11-18T00:43:04;5.35;;;3.88;;
14799;SDS011;7491;57.750;11.970;2023-11-18T00:45:31;3.45;;;3.15;;
14799;SDS011;7491;57.750;11.970;2023-11-18T00:47:59;3.30;;;2.90;;
14799;SDS011;7491;57.750;11.970;2023-11-18T00:50:26;3.88;;;2.72;;
14799;SDS011;7491;57.750;11.970;2023-11-18T00:52:53;4.55;;;3.47;;
14799;SDS011;7491;57.750;11.970;2023-11-18T00:55:19;3.72;;;3.42;;
14799;SDS011;7491;57.750;11.970;2023-11-18T00:57:46;3.35;;;2.78;;
14799;SDS011;7491;57.750;11.970;2023-11-18T01:00:16;5.88;;;2.95;;
14799;SDS011;7491;57.750;11.970;2023-11-18T01:02:47;3.70;;;2.90;;
14799;SDS011;7491;57.750;11.970;2023-11-18T01:05:16;3.80;;;3.10;;
14799;SDS011;7491;57.750;11.970;2023-11-18T01:07:42;5.35;;;4.30;;
14799;SDS011;7491;57.750;11.970;2023-11-18T01:10:09;5.28;;;4.03;;
14799;SDS011;7491;57.750;11.970;2023-11-18T01:12:37;3.90;;;3.47;;
14799;SDS011;7491;57.750;11.970;2023-11-18T01:15:04;4.82;;;3.38;;
14799;SDS011;7491;57.750;11.970;2023-11-18T01:17:32;3.63;;;2.95;;
14799;SDS011;7491;57.750;11.970;2023-11-18T01:19:58;5.20;;;3.70;;
14799;SDS011;7491;57.750;11.970;2023-11-18T01:22:27;4.55;;;3.75;;
14799;SDS011;7491;57.750;11.970;2023-11-18T01:24:54;3.88;;;3.13;;
14799;SDS011;7491;57.750;11.970;2023-11-18T01:27:21;4.15;;;3.17;;
14799;SDS011;7491;57.750;11.970;2023-11-18T01:29:48;4.75;;;3.20;;
14799;SDS011;7491;57.750;11.970;2023-11-18T01:32:14;4.28;;;3.10;;
14799;SDS011;7491;57.750;11.970;2023-11-18T01:34:42;4.65;;;3.28;;
14799;SDS011;7491;57.750;11.970;2023-11-18T01:37:09;4.18;;;3.22;;
14799;SDS011;7491;57.750;11.970;2023-11-18T01:39:38;3.47;;;3.13;;
14799;SDS011;7491;57.750;11.970;2023-11-18T01:42:04;7.05;;;3.78;;
14799;SDS011;7491;57.750;11.970;2023-11-18T01:44:31;3.85;;;3.45;;
14799;SDS011;7491;57.750;11.970;2023-11-18T01:47:00;5.35;;;4.47;;
14799;SDS011;7491;57.750;11.970;2023-11-18T01:49:31;4.28;;;3.75;;
14799;SDS011;7491;57.750;11.970;2023-11-18T01:51:58;3.35;;;3.05;;
14799;SDS011;7491;57.750;11.970;2023-11-18T01:54:26;3.22;;;2.92;;
14799;SDS011;7491;57.750;11.970;2023-11-18T01:56:54;6.68;;;5.70;;
14799;SDS011;7491;57.750;11.970;2023-11-18T01:59:22;5.40;;;4.13;;
14799;SDS011;7491;57.750;11.970;2023-11-18T02:01:51;5.45;;;4.13;;
14799;SDS011;7491;57.750;11.970;2023-11-18T02:04:23;3.80;;;3.10;;
14799;SDS011;7491;57.750;11.970;2023-11-18T02:06:50;4.40;;;3.50;;
14799;SDS011;7491;57.750;11.970;2023-11-18T02:09:19;3.58;;;2.95;;
14799;SDS011;7491;57.750;11.970;2023-11-18T02:11:53;4.70;;;3.53;;
14799;SDS011;7491;57.750;11.970;2023-11-18T02:14:27;3.85;;;3.13;;
14799;SDS011;7491;57.750;11.970;2023-11-18T02:16:58;4.25;;;3.53;;
14799;SDS011;7491;57.750;11.970;2023-11-18T02:19:26;4.85;;;3.35;;
14799;SDS011;7491;57.750;11.970;2023-11-18T02:21:55;4.47;;;3.47;;
14799;SDS011;7491;57.750;11.970;2023-11-18T02:24:26;4.07;;;3.22;;
14799;SDS011;7491;57.750;11.970;2023-11-18T02:26:57;6.05;;;4.22;;
14799;SDS011;7491;57.750;11.970;2023-11-18T02:29:25;4.47;;;3.75;;
14799;SDS011;7491;57.750;11.970;2023-11-18T02:31:56;4.70;;;3.70;;
14799;SDS011;7491;57.750;11.970;2023-11-18T02:34:28;4.57;;;4.10;;
14799;SDS011;7491;57.750;11.970;2023-11-18T02:36:59;5.20;;;3.60;;
14799;SDS011;7491;57.750;11.970;2023-11-18T02:39:32;4.97;;;3.95;;
14799;SDS011;7491;57.750;11.970;2023-11-18T02:42:07;5.38;;;4.07;;
14799;SDS011;7491;57.750;11.970;2023-11-18T02:44:37;4.35;;;3.45;;
14799;SDS011;7491;57.750;11.970;2023-11-18T02:47:05;4.97;;;3.97;;
14799;SDS011;7491;57.750;11.970;2023-11-18T02:49:31;5.10;;;3.83;;
14799;SDS011;7491;57.750;11.970;2023-11-18T02:51:58;4.85;;;3.90;;
14799;SDS011;7491;57.750;11.970;2023-11-18T02:54:25;5.03;;;4.05;;
14799;SDS011;7491;57.750;11.970;2023-11-18T02:56:52;5.90;;;4.07;;
14799;SDS011;7491;57.750;11.970;2023-11-18T02:59:20;5.57;;;4.30;;
14799;SDS011;7491;57.750;11.970;2023-11-18T03:01:47;6.53;;;4.10;;
14799;SDS011;7491;57.750;11.970;2023-11-18T03:04:13;6.43;;;3.55;;
14799;SDS011;7491;57.750;11.970;2023-11-18T03:06:41;7.30;;;4.75;;
14799;SDS011;7491;57.750;11.970;2023-11-18T03:09:08;5.90;;;4.45;;
14799;SDS011;7491;57.750;11.970;2023-11-18T03:11:35;8.05;;;4.80;;
14799;SDS011;7491;57.750;11.970;2023-11-18T03:14:03;4.50;;;3.75;;
14799;SDS011;7491;57.750;11.970;2023-11-18T03:16:35;7.78;;;4.28;;
14799;SDS011;7491;57.750;11.970;2023-11-18T03:19:03;6.50;;;4.50;;
14799;SDS011;7491;57.750;11.970;2023-11-18T03:21:30;6.53;;;4.22;;
14799;SDS011;7491;57.750;11.970;2023-11-18T03:23:56;4.57;;;3.78;;
14799;SDS011;7491;57.750;11.970;2023-11-18T03:26:23;7.15;;;4.65;;
14799;SDS011;7491;57.750;11.970;2023-11-18T03:28:51;4.72;;;3.97;;
14799;SDS011;7491;57.750;11.970;2023-11-18T03:31:17;4.35;;;3.85;;
14799;SDS011;7491;57.750;11.970;2023-11-18T03:33:46;6.18;;;4.22;;
14799;SDS011;7491;57.750;11.970;2023-11-18T03:36:13;5.43;;;4.13;;
14799;SDS011;7491;57.750;11.970;2023-11-18T03:38:43;6.10;;;4.50;;
14799;SDS011;7491;57.750;11.970;2023-11-18T03:41:10;5.15;;;3.83;;
14799;SDS011;7491;57.750;11.970;2023-11-18T03:43:38;5.50;;;3.88;;
14799;SDS011;7491;57.750;11.970;2023-11-18T03:46:04;5.53;;;4.30;;
14799;SDS011;7491;57.750;11.970;2023-11-18T03:48:32;7.38;;;4.65;;
14799;SDS011;7491;57.750;11.970;2023-11-18T03:51:00;6.68;;;4.70;;
14799;SDS011;7491;57.750;11.970;2023-11-18T03:53:28;5.78;;;4.25;;
14799;SDS011;7491;57.750;11.970;2023-11-18T03:55:55;4.82;;;4.25;;
14799;SDS011;7491;57.750;11.970;2023-11-18T03:58:22;5.40;;;4.28;;
14799;SDS011;7491;57.750;11.970;2023-11-18T04:00:49;4.40;;;3.53;;
14799;SDS011;7491;57.750;11.970;2023-11-18T04:03:16;5.18;;;3.92;;
14799;SDS011;7491;57.750;11.970;2023-11-18T04:05:42;5.05;;;3.40;;
14799;SDS011;7491;57.750;11.970;2023-11-18T04:08:11;4.45;;;3.40;;
14799;SDS011;7491;57.750;11.970;2023-11-18T04:10:38;8.00;;;6.78;;
14799;SDS011;7491;57.750;11.970;2023-11-18T04:13:05;6.18;;;5.05;;
14799;SDS011;7491;57.750;11.970;2023-11-18T04:15:31;6.05;;;5.00;;
14799;SDS011;7491;57.750;11.970;2023-11-18T04:18:00;5.68;;;4.55;;
14799;SDS011;7491;57.750;11.970;2023-11-18T04:20:27;5.32;;;4.03;;
14799;SDS011;7491;57.750;11.970;2023-11-18T04:22:53;6.57;;;3.90;;
14799;SDS011;7491;57.750;11.970;2023-11-18T04:25:21;5.95;;;4.45;;
14799;SDS011;7491;57.750;11.970;2023-11-18T04:27:48;5.18;;;3.53;;
14799;SDS011;7491;57.750;11.970;2023-11-18T04:30:15;5.28;;;3.90;;
14799;SDS011;7491;57.750;11.970;2023-11-18T04:32:42;5.85;;;3.90;;
14799;SDS011;7491;57.750;11.970;2023-11-18T04:35:09;6.95;;;4.20;;
14799;SDS011;7491;57.750;11.970;2023-11-18T04:37:37;7.38;;;4.20;;
14799;SDS011;7491;57.750;11.970;2023-11-18T04:40:08;5.25;;;4.07;;
14799;SDS011;7491;57.750;11.970;2023-11-18T04:42:38;7.65;;;4.80;;
14799;SDS011;7491;57.750;11.970;2023-11-18T04:45:05;6.32;;;4.28;;
14799;SDS011;7491;57.750;11.970;2023-11-18T04:47:34;6.32;;;3.70;;
14799;SDS011;7491;57.750;11.970;2023-11-18T04:50:01;6.05;;;4.35;;
14799;SDS011;7491;57.750;11.970;2023-11-18T04:52:29;4.55;;;3.72;;
14799;SDS011;7491;57.750;11.970;2023-11-18T04:54:57;6.38;;;4.45;;
14799;SDS011;7491;57.750;11.970;2023-11-18T04:57:25;5.40;;;4.60;;
14799;SDS011;7491;57.750;11.970;2023-11-18T04:59:53;5.97;;;4.60;;
14799;SDS011;7491;57.750;11.970;2023-11-18T05:02:20;5.25;;;4.45;;
14799;SDS011;7491;57.750;11.970;2023-11-18T05:04:48;6.53;;;3.65;;
14799;SDS011;7491;57.750;11.970;2023-11-18T05:07:15;7.00;;;4.63;;
14799;SDS011;7491;57.750;11.970;2023-11-18T05:09:42;4.93;;;4.05;;
14799;SDS011;7491;57.750;11.970;2023-11-18T05:12:09;5.18;;;3.95;;
14799;SDS011;7491;57.750;11.970;2023-11-18T05:14:36;5.90;;;3.83;;
14799;SDS011;7491;57.750;11.970;2023-11-18T05:17:04;6.13;;;4.45;;
14799;SDS011;7491;57.750;11.970;2023-11-18T05:19:30;5.30;;;4.57;;
14799;SDS011;7491;57.750;11.970;2023-11-18T05:21:57;8.30;;;4.00;;
14799;SDS011;7491;57.750;11.970;2023-11-18T05:24:25;5.38;;;4.05;;
14799;SDS011;7491;57.750;11.970;2023-11-18T05:26:51;5.10;;;4.05;;
14799;SDS011;7491;57.750;11.970;2023-11-18T05:29:18;5.85;;;3.40;;
14799;SDS011;7491;57.750;11.970;2023-11-18T05:31:46;5.03;;;3.78;;
14799;SDS011;7491;57.750;11.970;2023-11-18T05:34:14;4.70;;;3.90;;
14799;SDS011;7491;57.750;11.970;2023-11-18T05:36:41;7.22;;;4.03;;
14799;SDS011;7491;57.750;11.970;2023-11-18T05:39:08;6.45;;;4.22;;
14799;SDS011;7491;57.750;11.970;2023-11-18T05:41:35;3.33;;;2.97;;
14799;SDS011;7491;57.750;11.970;2023-11-18T05:44:05;5.38;;;3.80;;
14799;SDS011;7491;57.750;11.970;2023-11-18T05:46:34;4.93;;;3.53;;
14799;SDS011;7491;57.750;11.970;2023-11-18T05:49:01;6.10;;;4.40;;
14799;SDS011;7491;57.750;11.970;2023-11-18T05:51:33;5.17;;;4.17;;
14799;SDS011;7491;57.750;11.970;2023-11-18T05:54:00;6.28;;;3.83;;
14799;SDS011;7491;57.750;11.970;2023-11-18T05:56:27;4.40;;;3.63;;
14799;SDS011;7491;57.750;11.970;2023-11-18T05:58:54;5.28;;;4.22;;
14799;SDS011;7491;57.750;11.970;2023-11-18T06:01:21;5.38;;;4.05;;
14799;SDS011;7491;57.750;11.970;2023-11-18T06:03:48;5.07;;;4.00;;
14799;SDS011;7491;57.750;11.970;2023-11-18T06:06:15;9.02;;;3.70;;
14799;SDS011;7491;57.750;11.970;2023-11-18T06:08:44;4.50;;;3.60;;
14799;SDS011;7491;57.750;11.970;2023-11-18T06:11:12;29.40;;;5.93;;
14799;SDS011;7491;57.750;11.970;2023-11-18T06:13:40;10.40;;;4.43;;
14799;SDS011;7491;57.750;11.970;2023-11-18T06:16:09;10.10;;;3.85;;
14799;SDS011;7491;57.750;11.970;2023-11-18T06:18:39;18.10;;;4.82;;
14799;SDS011;7491;57.750;11.970;2023-11-18T06:21:07;16.95;;;3.85;;
14799;SDS011;7491;57.750;11.970;2023-11-18T06:23:34;7.45;;;4.68;;
14799;SDS011;7491;57.750;11.970;2023-11-18T06:26:02;12.00;;;4.95;;
14799;SDS011;7491;57.750;11.970;2023-11-18T06:28:29;7.03;;;4.65;;
14799;SDS011;7491;57.750;11.970;2023-11-18T06:30:57;11.75;;;4.32;;
14799;SDS011;7491;57.750;11.970;2023-11-18T06:33:24;10.10;;;3.75;;
14799;SDS011;7491;57.750;11.970;2023-11-18T06:35:52;5.00;;;3.83;;
14799;SDS011;7491;57.750;11.970;2023-11-18T06:38:21;5.63;;;3.83;;
14799;SDS011;7491;57.750;11.970;2023-11-18T06:40:48;7.22;;;4.32;;
14799;SDS011;7491;57.750;11.970;2023-11-18T06:43:19;5.97;;;4.05;;
14799;SDS011;7491;57.750;11.970;2023-11-18T06:45:45;4.68;;;3.95;;
14799;SDS011;7491;57.750;11.970;2023-11-18T06:48:14;6.18;;;4.10;;
14799;SDS011;7491;57.750;11.970;2023-11-18T06:50:45;6.05;;;4.38;;
14799;SDS011;7491;57.750;11.970;2023-11-18T06:53:12;5.50;;;4.00;;
14799;SDS011;7491;57.750;11.970;2023-11-18T06:55:40;7.32;;;4.40;;
14799;SDS011;7491;57.750;11.970;2023-11-18T06:58:07;8.95;;;6.93;;
14799;SDS011;7491;57.750;11.970;2023-11-18T07:00:37;8.88;;;5.28;;
14799;SDS011;7491;57.750;11.970;2023-11-18T07:03:04;6.80;;;4.82;;
14799;SDS011;7491;57.750;11.970;2023-11-18T07:05:30;6.80;;;4.60;;
14799;SDS011;7491;57.750;11.970;2023-11-18T07:07:57;6.28;;;4.45;;
14799;SDS011;7491;57.750;11.970;2023-11-18T07:10:24;6.28;;;4.40;;
14799;SDS011;7491;57.750;11.970;2023-11-18T07:12:52;5.40;;;4.20;;
14799;SDS011;7491;57.750;11.970;2023-11-18T07:15:19;5.53;;;4.05;;
14799;SDS011;7491;57.750;11.970;2023-11-18T07:17:47;6.75;;;4.22;;
14799;SDS011;7491;57.750;11.970;2023-11-18T07:20:14;6.07;;;4.13;;
14799;SDS011;7491;57.750;11.970;2023-11-18T07:22:42;6.78;;;4.15;;
14799;SDS011;7491;57.750;11.970;2023-11-18T07:25:08;6.50;;;3.90;;
14799;SDS011;7491;57.750;11.970;2023-11-18T07:27:35;7.60;;;4.00;;
14799;SDS011;7491;57.750;11.970;2023-11-18T07:30:02;7.57;;;4.53;;
14799;SDS011;7491;57.750;11.970;2023-11-18T07:32:35;5.38;;;4.22;;
14799;SDS011;7491;57.750;11.970;2023-11-18T07:35:03;7.97;;;4.00;;
14799;SDS011;7491;57.750;11.970;2023-11-18T07:37:34;6.70;;;4.18;;
14799;SDS011;7491;57.750;11.970;2023-11-18T07:40:02;6.70;;;4.72;;
14799;SDS011;7491;57.750;11.970;2023-11-18T07:42:30;5.30;;;3.70;;
14799;SDS011;7491;57.750;11.970;2023-11-18T07:45:00;9.07;;;4.00;;
14799;SDS011;7491;57.750;11.970;2023-11-18T07:47:28;7.22;;;4.82;;
14799;SDS011;7491;57.750;11.970;2023-11-18T07:49:57;7.15;;;4.40;;
14799;SDS011;7491;57.750;11.970;2023-11-18T07:52:25;4.60;;;3.80;;
14799;SDS011;7491;57.750;11.970;2023-11-18T07:54:53;6.45;;;4.80;;
14799;SDS011;7491;57.750;11.970;2023-11-18T07:57:19;7.53;;;4.88;;
14799;SDS011;7491;57.750;11.970;2023-11-18T07:59:49;6.57;;;5.00;;
14799;SDS011;7491;57.750;11.970;2023-11-18T08:02:15;6.68;;;4.85;;
14799;SDS011;7491;57.750;11.970;2023-11-18T08:04:44;5.90;;;4.38;;
14799;SDS011;7491;57.750;11.970;2023-11-18T08:07:10;6.45;;;4.43;;
14799;SDS011;7491;57.750;11.970;2023-11-18T08:09:38;5.93;;;4.60;;
14799;SDS011;7491;57.750;11.970;2023-11-18T08:12:06;5.82;;;4.50;;
14799;SDS011;7491;57.750;11.970;2023-11-18T08:14:34;5.85;;;4.28;;
14799;SDS011;7491;57.750;11.970;2023-11-18T08:17:01;6.38;;;4.60;;
14799;SDS011;7491;57.750;11.970;2023-11-18T08:19:29;7.05;;;5.00;;
14799;SDS011;7491;57.750;11.970;2023-11-18T08:21:56;7.15;;;4.70;;
14799;SDS011;7491;57.750;11.970;2023-11-18T08:24:24;7.32;;;4.80;;
14799;SDS011;7491;57.750;11.970;2023-11-18T08:26:53;5.75;;;4.53;;
14799;SDS011;7491;57.750;11.970;2023-11-18T08:29:19;9.65;;;4.50;;
14799;SDS011;7491;57.750;11.970;2023-11-18T08:31:47;6.63;;;5.03;;
14799;SDS011;7491;57.750;11.970;2023-11-18T08:34:14;6.63;;;5.18;;
14799;SDS011;7491;57.750;11.970;2023-11-18T08:36:42;6.32;;;4.60;;
14799;SDS011;7491;57.750;11.970;2023-11-18T08:39:09;5.22;;;4.30;;
14799;SDS011;7491;57.750;11.970;2023-11-18T08:41:36;7.47;;;5.32;;
14799;SDS011;7491;57.750;11.970;2023-11-18T08:44:05;8.63;;;5.22;;
14799;SDS011;7491;57.750;11.970;2023-11-18T08:46:34;6.53;;;4.65;;
14799;SDS011;7491;57.750;11.970;2023-11-18T08:49:01;5.97;;;4.32;;
14799;SDS011;7491;57.750;11.970;2023-11-18T08:51:35;7.20;;;4.72;;
14799;SDS011;7491;57.750;11.970;2023-11-18T08:54:03;6.05;;;4.05;;
14799;SDS011;7491;57.750;11.970;2023-11-18T08:56:47;5.63;;;4.35;;
14799;SDS011;7491;57.750;11.970;2023-11-18T08:59:17;6.60;;;4.72;;
14799;SDS011;7491;57.750;11.970;2023-11-18T09:01:49;6.28;;;4.57;;
14799;SDS011;7491;57.750;11.970;2023-11-18T09:04:20;5.45;;;4.72;;
14799;SDS011;7491;57.750;11.970;2023-11-18T09:06:48;6.50;;;4.75;;
14799;SDS011;7491;57.750;11.970;2023-11-18T09:09:16;9.55;;;4.75;;
14799;SDS011;7491;57.750;11.970;2023-11-18T09:11:51;7.10;;;5.10;;
14799;SDS011;7491;57.750;11.970;2023-11-18T09:14:20;6.40;;;4.50;;
14799;SDS011;7491;57.750;11.970;2023-11-18T09:16:47;8.85;;;4.95;;
14799;SDS011;7491;57.750;11.970;2023-11-18T09:19:15;6.93;;;4.82;;
14799;SDS011;7491;57.750;11.970;2023-11-18T09:21:42;7.38;;;6.40;;
14799;SDS011;7491;57.750;11.970;2023-11-18T09:24:09;8.57;;;6.28;;
14799;SDS011;7491;57.750;11.970;2023-11-18T09:26:38;7.25;;;5.40;;
14799;SDS011;7491;57.750;11.970;2023-11-18T09:29:04;8.50;;;5.00;;
14799;SDS011;7491;57.750;11.970;2023-11-18T09:31:35;8.82;;;6.47;;
14799;SDS011;7491;57.750;11.970;2023-11-18T09:34:02;13.02;;;7.57;;
14799;SDS011;7491;57.750;11.970;2023-11-18T09:36:31;10.63;;;7.30;;
14799;SDS011;7491;57.750;11.970;2023-11-18T09:38:58;9.70;;;6.35;;
14799;SDS011;7491;57.750;11.970;2023-11-18T09:41:28;11.00;;;6.70;;
14799;SDS011;7491;57.750;11.970;2023-11-18T09:43:55;7.43;;;5.15;;
14799;SDS011;7491;57.750;11.970;2023-11-18T09:46:27;7.95;;;5.60;;
14799;SDS011;7491;57.750;11.970;2023-11-18T09:48:59;8.57;;;5.55;;
14799;SDS011;7491;57.750;11.970;2023-11-18T09:51:41;8.23;;;5.63;;
14799;SDS011;7491;57.750;11.970;2023-11-18T09:54:12;7.50;;;5.28;;
14799;SDS011;7491;57.750;11.970;2023-11-18T09:56:51;7.63;;;5.68;;
14799;SDS011;7491;57.750;11.970;2023-11-18T09:59:35;10.68;;;5.28;;
14799;SDS011;7491;57.750;11.970;2023-11-18T10:02:10;7.22;;;4.65;;
14799;SDS011;7491;57.750;11.970;2023-11-18T10:04:38;6.70;;;4.90;;
14799;SDS011;7491;57.750;11.970;2023-11-18T10:07:05;7.22;;;5.22;;
14799;SDS011;7491;57.750;11.970;2023-11-18T10:09:35;8.18;;;4.97;;
14799;SDS011;7491;57.750;11.970;2023-11-18T10:12:04;7.45;;;5.00;;
14799;SDS011;7491;57.750;11.970;2023-11-18T10:14:31;8.43;;;5.03;;
14799;SDS011;7491;57.750;11.970;2023-11-18T10:16:58;6.60;;;4.60;;
14799;SDS011;7491;57.750;11.970;2023-11-18T10:22:20;5.50;;;4.00;;
14799;SDS011;7491;57.750;11.970;2023-11-18T10:24:49;6.45;;;4.53;;
14799;SDS011;7491;57.750;11.970;2023-11-18T10:27:19;5.13;;;3.97;;
14799;SDS011;7491;57.750;11.970;2023-11-18T10:29:48;7.10;;;4.72;;
14799;SDS011;7491;57.750;11.970;2023-11-18T10:32:17;6.65;;;5.13;;
14799;SDS011;7491;57.750;11.970;2023-11-18T10:34:46;7.88;;;5.05;;
14799;SDS011;7491;57.750;11.970;2023-11-18T10:37:16;6.93;;;5.38;;
14799;SDS011;7491;57.750;11.970;2023-11-18T10:39:46;9.25;;;6.65;;
14799;SDS011;7491;57.750;11.970;2023-11-18T10:42:13;6.30;;;4.63;;
14799;SDS011;7491;57.750;11.970;2023-11-18T10:44:53;6.05;;;4.85;;
14799;SDS011;7491;57.750;11.970;2023-11-18T10:47:22;8.35;;;5.25;;
14799;SDS011;7491;57.750;11.970;2023-11-18T10:49:51;7.80;;;4.85;;
14799;SDS011;7491;57.750;11.970;2023-11-18T10:52:19;6.97;;;5.15;;
14799;SDS011;7491;57.750;11.970;2023-11-18T10:54:52;7.22;;;5.82;;
14799;SDS011;7491;57.750;11.970;2023-11-18T10:57:21;7.18;;;5.57;;
14799;SDS011;7491;57.750;11.970;2023-11-18T11:00:01;7.03;;;5.40;;
14799;SDS011;7491;57.750;11.970;2023-11-18T11:02:32;7.78;;;5.00;;
14799;SDS011;7491;57.750;11.970;2023-11-18T11:05:04;7.38;;;5.38;;
14799;SDS011;7491;57.750;11.970;2023-11-18T11:07:33;6.07;;;4.57;;
14799;SDS011;7491;57.750;11.970;2023-11-18T11:10:02;7.88;;;4.80;;
14799;SDS011;7491;57.750;11.970;2023-11-18T11:12:32;7.93;;;5.00;;
14799;SDS011;7491;57.750;11.970;2023-11-18T11:15:05;11.10;;;4.93;;
14799;SDS011;7491;57.750;11.970;2023-11-18T11:17:46;5.35;;;4.03;;
14799;SDS011;7491;57.750;11.970;2023-11-18T11:20:20;5.13;;;4.30;;
14799;SDS011;7491;57.750;11.970;2023-11-18T11:22:59;6.82;;;4.45;;
14799;SDS011;7491;57.750;11.970;2023-11-18T11:25:35;6.10;;;4.55;;
14799;SDS011;7491;57.750;11.970;2023-11-18T11:28:16;10.43;;;4.25;;
14799;SDS011;7491;57.750;11.970;2023-11-18T11:30:50;5.00;;;4.47;;
14799;SDS011;7491;57.750;11.970;2023-11-18T11:33:22;5.68;;;4.35;;
14799;SDS011;7491;57.750;11.970;2023-11-18T11:35:57;5.72;;;4.32;;
14799;SDS011;7491;57.750;11.970;2023-11-18T11:38:30;5.47;;;4.28;;
14799;SDS011;7491;57.750;11.970;2023-11-18T11:40:58;6.05;;;4.80;;
14799;SDS011;7491;57.750;11.970;2023-11-18T11:43:30;4.70;;;4.18;;
14799;SDS011;7491;57.750;11.970;2023-11-18T11:46:00;5.18;;;3.67;;
14799;SDS011;7491;57.750;11.970;2023-11-18T11:48:35;6.28;;;4.10;;
14799;SDS011;7491;57.750;11.970;2023-11-18T11:51:16;7.70;;;5.47;;
14799;SDS011;7491;57.750;11.970;2023-11-18T11:53:55;6.07;;;4.20;;
14799;SDS011;7491;57.750;11.970;2023-11-18T11:56:39;4.35;;;3.85;;
14799;SDS011;7491;57.750;11.970;2023-11-18T11:59:08;5.43;;;4.20;;
14799;SDS011;7491;57.750;11.970;2023-11-18T12:01:36;5.38;;;3.85;;
14799;SDS011;7491;57.750;11.970;2023-11-18T12:04:03;5.28;;;4.30;;
14799;SDS011;7491;57.750;11.970;2023-11-18T12:06:37;6.93;;;4.00;;
14799;SDS011;7491;57.750;11.970;2023-11-18T12:09:10;5.95;;;3.97;;
14799;SDS011;7491;57.750;11.970;2023-11-18T12:11:44;5.38;;;4.00;;
14799;SDS011;7491;57.750;11.970;2023-11-18T12:14:13;6.93;;;4.00;;
14799;SDS011;7491;57.750;11.970;2023-11-18T12:16:58;4.78;;;3.90;;
14799;SDS011;7491;57.750;11.970;2023-11-18T12:19:33;7.00;;;3.90;;
14799;SDS011;7491;57.750;11.970;2023-11-18T12:22:11;5.55;;;3.83;;
14799;SDS011;7491;57.750;11.970;2023-11-18T12:28:00;5.40;;;3.67;;
14799;SDS011;7491;57.750;11.970;2023-11-18T12:30:41;8.48;;;3.95;;
14799;SDS011;7491;57.750;11.970;2023-11-18T12:33:22;5.07;;;4.18;;
14799;SDS011;7491;57.750;11.970;2023-11-18T12:36:12;10.27;;;8.10;;
14799;SDS011;7491;57.750;11.970;2023-11-18T12:42:06;15.30;;;9.35;;
14799;SDS011;7491;57.750;11.970;2023-11-18T12:44:38;9.02;;;6.00;;
14799;SDS011;7491;57.750;11.970;2023-11-18T12:47:18;9.35;;;6.50;;
14799;SDS011;7491;57.750;11.970;2023-11-18T12:49:48;14.68;;;10.00;;
14799;SDS011;7491;57.750;11.970;2023-11-18T12:52:19;8.23;;;6.10;;
14799;SDS011;7491;57.750;11.970;2023-11-18T12:54:47;6.05;;;3.80;;
14799;SDS011;7491;57.750;11.970;2023-11-18T12:57:16;7.45;;;4.78;;
14799;SDS011;7491;57.750;11.970;2023-11-18T12:59:44;7.18;;;4.50;;
14799;SDS011;7491;57.750;11.970;2023-11-18T13:02:11;6.28;;;3.80;;
14799;SDS011;7491;57.750;11.970;2023-11-18T13:04:44;6.18;;;5.35;;
14799;SDS011;7491;57.750;11.970;2023-11-18T13:07:12;6.93;;;4.95;;
14799;SDS011;7491;57.750;11.970;2023-11-18T13:09:40;4.95;;;3.30;;
14799;SDS011;7491;57.750;11.970;2023-11-18T13:12:09;4.93;;;3.80;;
14799;SDS011;7491;57.750;11.970;2023-11-18T13:14:39;7.15;;;3.08;;
14799;SDS011;7491;57.750;11.970;2023-11-18T13:17:10;5.10;;;3.10;;
14799;SDS011;7491;57.750;11.970;2023-11-18T13:19:38;4.82;;;3.30;;
14799;SDS011;7491;57.750;11.970;2023-11-18T13:22:05;3.90;;;3.15;;
14799;SDS011;7491;57.750;11.970;2023-11-18T13:24:37;6.15;;;3.42;;
14799;SDS011;7491;57.750;11.970;2023-11-18T13:27:06;4.85;;;3.20;;
14799;SDS011;7491;57.750;11.970;2023-11-18T13:29:34;6.77;;;4.00;;
14799;SDS011;7491;57.750;11.970;2023-11-18T13:32:04;9.50;;;3.55;;
14799;SDS011;7491;57.750;11.970;2023-11-18T13:34:34;6.78;;;3.55;;
14799;SDS011;7491;57.750;11.970;2023-11-18T13:37:03;6.22;;;3.35;;
14799;SDS011;7491;57.750;11.970;2023-11-18T13:39:31;6.68;;;3.00;;
14799;SDS011;7491;57.750;11.970;2023-11-18T13:41:58;4.43;;;2.75;;
14799;SDS011;7491;57.750;11.970;2023-11-18T13:44:44;4.50;;;2.55;;
14799;SDS011;7491;57.750;11.970;2023-11-18T13:47:12;4.07;;;2.40;;
14799;SDS011;7491;57.750;11.970;2023-11-18T13:49:42;2.97;;;2.67;;
14799;SDS011;7491;57.750;11.970;2023-11-18T13:52:09;3.10;;;2.22;;
14799;SDS011;7491;57.750;11.970;2023-11-18T13:54:38;4.95;;;2.72;;
14799;SDS011;7491;57.750;11.970;2023-11-18T13:57:05;3.40;;;1.98;;
14799;SDS011;7491;57.750;11.970;2023-11-18T13:59:32;5.28;;;2.47;;
14799;SDS011;7491;57.750;11.970;2023-11-18T14:02:00;4.22;;;2.75;;
14799;SDS011;7491;57.750;11.970;2023-11-18T14:04:29;7.68;;;2.90;;
14799;SDS011;7491;57.750;11.970;2023-11-18T14:07:00;3.28;;;2.42;;
14799;SDS011;7491;57.750;11.970;2023-11-18T14:09:29;3.65;;;2.88;;
14799;SDS011;7491;57.750;11.970;2023-11-18T14:11:58;3.75;;;2.50;;
14799;SDS011;7491;57.750;11.970;2023-11-18T14:14:25;4.30;;;2.60;;
14799;SDS011;7491;57.750;11.970;2023-11-18T14:16:52;3.67;;;2.53;;
14799;SDS011;7491;57.750;11.970;2023-11-18T14:19:22;7.55;;;2.78;;
14799;SDS011;7491;57.750;11.970;2023-11-18T14:21:49;4.78;;;2.95;;
14799;SDS011;7491;57.750;11.970;2023-11-18T14:24:18;3.15;;;2.50;;
14799;SDS011;7491;57.750;11.970;2023-11-18T14:26:48;4.72;;;2.80;;
14799;SDS011;7491;57.750;11.970;2023-11-18T14:29:15;4.85;;;2.58;;
14799;SDS011;7491;57.750;11.970;2023-11-18T14:31:43;4.15;;;2.70;;
14799;SDS011;7491;57.750;11.970;2023-11-18T14:34:11;4.88;;;2.72;;
14799;SDS011;7491;57.750;11.970;2023-11-18T14:36:38;4.28;;;2.55;;
14799;SDS011;7491;57.750;11.970;2023-11-18T14:39:06;4.55;;;3.08;;
14799;SDS011;7491;57.750;11.970;2023-11-18T14:41:39;3.90;;;3.20;;
14799;SDS011;7491;57.750;11.970;2023-11-18T14:44:06;4.13;;;3.00;;
14799;SDS011;7491;57.750;11.970;2023-11-18T14:46:34;4.05;;;3.40;;
14799;SDS011;7491;57.750;11.970;2023-11-18T14:49:03;4.30;;;3.70;;
14799;SDS011;7491;57.750;11.970;2023-11-18T14:51:31;5.32;;;3.92;;
14799;SDS011;7491;57.750;11.970;2023-11-18T14:53:57;4.13;;;3.72;;
14799;SDS011;7491;57.750;11.970;2023-11-18T14:56:24;4.20;;;3.78;;
14799;SDS011;7491;57.750;11.970;2023-11-18T14:58:52;5.05;;;3.10;;
14799;SDS011;7491;57.750;11.970;2023-11-18T15:01:19;3.47;;;3.17;;
14799;SDS011;7491;57.750;11.970;2023-11-18T15:03:46;4.32;;;3.83;;
14799;SDS011;7491;57.750;11.970;2023-11-18T15:06:12;5.63;;;4.30;;
14799;SDS011;7491;57.750;11.970;2023-11-18T15:08:41;6.65;;;4.00;;